createdAt,value
2018-10-18T00:01:11.721Z,92407.92
2018-10-18T00:03:47.630Z,92403.92
2018-10-18T00:06:23.344Z,92399.59
2018-10-18T00:08:59.353Z,92402.91
2018-10-18T00:11:35.188Z,92393.25
2018-10-18T00:14:10.998Z,92390.30
2018-10-18T00:16:47.136Z,92393.18
2018-10-18T00:19:22.881Z,92388.31
2018-10-18T00:21:58.766Z,92389.29
2018-10-18T00:24:34.867Z,92389.81
2018-10-18T00:27:10.743Z,92393.66
2018-10-18T00:29:46.640Z,92390.23
2018-10-18T00:32:22.603Z,92381.45
2018-10-18T00:34:58.452Z,92382.29
2018-10-18T00:37:34.450Z,92377.39
2018-10-18T00:40:11.650Z,92374.30
2018-10-18T00:42:47.503Z,92374.77
2018-10-18T00:45:23.296Z,92374.73
2018-10-18T00:47:59.506Z,92366.61
2018-10-18T00:50:35.568Z,92366.75
2018-10-18T00:53:11.369Z,92365.48
2018-10-18T00:55:47.362Z,92368.52
2018-10-18T00:58:23.128Z,92362.08
2018-10-18T01:00:58.850Z,92363.98
2018-10-18T01:03:34.476Z,92366.45
2018-10-18T01:06:10.253Z,92363.84
2018-10-18T01:08:46.244Z,92363.09
2018-10-18T01:11:22.064Z,92364.97
2018-10-18T01:13:57.873Z,92360.77
2018-10-18T01:16:33.876Z,92353.84
2018-10-18T01:19:09.727Z,92355.04
2018-10-18T01:21:45.585Z,92356.73
2018-10-18T01:24:21.356Z,92344.68
2018-10-18T01:26:57.324Z,92355.27
2018-10-18T01:29:33.185Z,92350.82
2018-10-18T01:32:09.122Z,92345.69
2018-10-18T01:34:44.948Z,92351.58
2018-10-18T01:37:20.964Z,92344.95
2018-10-18T01:39:56.782Z,92344.12
2018-10-18T01:42:33.039Z,92338.82
2018-10-18T01:45:08.980Z,92341.90
2018-10-18T01:47:44.789Z,92337.57
2018-10-18T01:50:21.134Z,92341.39
2018-10-18T01:52:57.109Z,92339.45
2018-10-18T01:55:33.006Z,92335.27
2018-10-18T01:58:08.988Z,92336.14
2018-10-18T02:00:44.975Z,92330.12
2018-10-18T02:03:20.763Z,92334.23
2018-10-18T02:05:56.624Z,92330.61
2018-10-18T02:08:32.586Z,92332.25
2018-10-18T02:12:32.482Z,92326.95
2018-10-18T02:15:10.573Z,92325.06
2018-10-18T02:17:46.501Z,92325.37
2018-10-18T02:20:22.446Z,92323.96
2018-10-18T02:22:58.200Z,92322.23
2018-10-18T02:25:34.056Z,92324.74
2018-10-18T02:28:09.856Z,92324.98
2018-10-18T02:30:45.862Z,92326.50
2018-10-18T02:33:21.686Z,92329.51
2018-10-18T02:35:57.478Z,92324.11
2018-10-18T02:38:33.295Z,92326.58
2018-10-18T02:41:09.066Z,92322.67
2018-10-18T02:43:45.016Z,92326.96
2018-10-18T02:46:21.230Z,92329.34
2018-10-18T02:48:56.990Z,92328.84
2018-10-18T02:51:32.918Z,92324.69
2018-10-18T02:54:08.718Z,92329.38
2018-10-18T02:56:44.597Z,92323.73
2018-10-18T02:59:20.606Z,92321.50
2018-10-18T03:01:56.554Z,92325.23
2018-10-18T03:04:32.784Z,92325.80
2018-10-18T03:07:08.897Z,92328.88
2018-10-18T03:09:44.734Z,92327.23
2018-10-18T03:12:20.743Z,92325.80
2018-10-18T03:14:56.621Z,92327.98
2018-10-18T03:17:32.423Z,92326.44
2018-10-18T03:20:09.013Z,92325.81
2018-10-18T03:22:44.846Z,92332.10
2018-10-18T03:25:20.601Z,92331.39
2018-10-18T03:27:56.560Z,92333.60
2018-10-18T03:30:33.763Z,92327.59
2018-10-18T03:33:09.726Z,92327.62
2018-10-18T03:35:45.652Z,92325.31
2018-10-18T03:38:21.546Z,92332.23
2018-10-18T03:40:57.467Z,92330.25
2018-10-18T03:43:33.386Z,92324.90
2018-10-18T03:46:09.220Z,92329.50
2018-10-18T03:48:45.115Z,92326.88
2018-10-18T03:51:20.913Z,92328.89
2018-10-18T03:53:56.925Z,92327.30
2018-10-18T03:56:33.081Z,92327.36
2018-10-18T03:59:09.108Z,92321.40
2018-10-18T04:01:49.202Z,92324.52
2018-10-18T04:04:29.484Z,92319.26
2018-10-18T04:07:05.580Z,92318.55
2018-10-18T04:09:41.392Z,92321.66
2018-10-18T04:12:17.219Z,92325.22
2018-10-18T04:14:53.238Z,92322.19
2018-10-18T04:17:29.136Z,92313.70
2018-10-18T04:20:05.888Z,92312.81
2018-10-18T04:22:41.638Z,92316.92
2018-10-18T04:25:17.494Z,92314.61
2018-10-18T04:27:53.564Z,92320.69
2018-10-18T04:30:29.646Z,92320.77
2018-10-18T04:33:06.266Z,92321.88
2018-10-18T04:35:42.299Z,92323.19
2018-10-18T04:38:20.879Z,92326.23
2018-10-18T04:40:57.663Z,92330.31
2018-10-18T04:43:33.363Z,92327.55
2018-10-18T04:46:09.302Z,92332.50
2018-10-18T04:48:45.286Z,92331.39
2018-10-18T04:51:21.964Z,92337.64
2018-10-18T04:53:57.917Z,92332.55
2018-10-18T04:56:33.792Z,92339.26
2018-10-18T04:59:09.876Z,92333.08
2018-10-18T05:01:46.010Z,92337.09
2018-10-18T05:04:22.143Z,92340.48
2018-10-18T05:06:58.457Z,92343.52
2018-10-18T05:09:34.500Z,92343.79
2018-10-18T05:12:10.564Z,92350.61
2018-10-18T05:14:46.352Z,92353.78
2018-10-18T05:17:26.681Z,92355.79
2018-10-18T05:20:02.381Z,92361.13
2018-10-18T05:22:38.390Z,92355.08
2018-10-18T05:25:14.310Z,92358.86
2018-10-18T05:27:50.370Z,92362.97
2018-10-18T05:30:26.230Z,92364.63
2018-10-18T05:33:02.272Z,92367.78
2018-10-18T05:35:38.201Z,92367.33
2018-10-18T05:38:14.533Z,92362.79
2018-10-18T05:40:50.227Z,92365.20
2018-10-18T05:43:26.086Z,92374.62
2018-10-18T05:46:01.960Z,92368.42
2018-10-18T05:48:37.868Z,92371.66
2018-10-18T05:51:13.631Z,92370.98
2018-10-18T05:53:49.714Z,92374.04
2018-10-18T05:56:25.782Z,92367.64
2018-10-18T05:59:01.646Z,92365.07
2018-10-18T06:01:37.501Z,92365.75
2018-10-18T06:04:13.400Z,92371.50
2018-10-18T06:06:49.275Z,92367.27
2018-10-18T06:09:31.065Z,92367.34
2018-10-18T06:12:07.047Z,92362.33
2018-10-18T06:14:43.075Z,92366.34
2018-10-18T06:17:19.069Z,92363.48
2018-10-18T06:19:54.982Z,92364.76
2018-10-18T06:22:31.052Z,92362.84
2018-10-18T06:25:07.986Z,92360.00
2018-10-18T06:27:44.173Z,92355.91
2018-10-18T06:30:20.092Z,92360.62
2018-10-18T06:32:55.979Z,92362.88
2018-10-18T06:35:32.057Z,92360.41
2018-10-18T06:38:08.069Z,92360.53
2018-10-18T06:40:44.024Z,92368.27
2018-10-18T06:43:19.885Z,92358.40
2018-10-18T06:45:56.152Z,92369.56
2018-10-18T06:48:33.263Z,92359.91
2018-10-18T06:51:09.662Z,92362.08
2018-10-18T06:53:45.636Z,92357.74
2018-10-18T06:56:21.584Z,92358.09
2018-10-18T06:58:57.505Z,92360.02
2018-10-18T07:01:33.630Z,92354.45
2018-10-18T07:04:09.536Z,92356.55
2018-10-18T07:06:45.720Z,92358.48
2018-10-18T07:09:21.600Z,92354.48
2018-10-18T07:11:57.641Z,92350.81
2018-10-18T07:14:33.617Z,92344.22
2018-10-18T07:17:09.513Z,92350.56
2018-10-18T07:19:45.385Z,92344.16
2018-10-18T07:22:21.394Z,92343.02
2018-10-18T07:24:57.350Z,92339.70
2018-10-18T07:27:33.278Z,92341.88
2018-10-18T07:30:10.715Z,92342.41
2018-10-18T07:32:46.823Z,92340.81
2018-10-18T07:35:22.841Z,92333.55
2018-10-18T07:38:00.034Z,92329.88
2018-10-18T07:40:35.854Z,92331.02
2018-10-18T07:43:11.852Z,92329.80
2018-10-18T07:45:47.881Z,92330.81
2018-10-18T07:48:23.950Z,92329.22
2018-10-18T07:50:59.773Z,92326.30
2018-10-18T07:53:35.716Z,92322.84
2018-10-18T07:56:11.764Z,92316.58
2018-10-18T07:58:47.684Z,92319.41
2018-10-18T08:01:18.572Z,92313.08
2018-10-18T08:03:49.519Z,92309.14
2018-10-18T08:06:20.416Z,92309.06
2018-10-18T08:08:51.356Z,92305.48
2018-10-18T08:11:22.309Z,92305.09
2018-10-18T08:13:53.348Z,92310.98
2018-10-18T08:16:24.256Z,92307.13
2018-10-18T08:18:56.207Z,92310.84
2018-10-18T08:21:27.406Z,92309.48
2018-10-18T08:23:59.737Z,92299.67
2018-10-18T08:26:31.624Z,92299.83
2018-10-18T08:29:02.983Z,92299.94
2018-10-18T08:31:34.032Z,92293.94
2018-10-18T08:34:05.954Z,92295.91
2018-10-18T08:36:37.906Z,92293.05
2018-10-18T08:39:10.841Z,92296.67
2018-10-18T08:41:41.981Z,92296.33
2018-10-18T08:44:13.363Z,92294.34
2018-10-18T08:46:44.572Z,92291.73
2018-10-18T08:49:18.342Z,92289.95
2018-10-18T08:51:51.569Z,92287.35
2018-10-18T08:54:22.386Z,92286.59
2018-10-18T08:56:53.555Z,92282.64
2018-10-18T08:59:25.621Z,92283.69
2018-10-18T09:01:57.746Z,92278.47
2018-10-18T09:04:28.737Z,92274.09
2018-10-18T09:06:59.952Z,92272.16
2018-10-18T09:09:31.674Z,92274.31
2018-10-18T09:12:09.626Z,92265.95
2018-10-18T09:14:40.893Z,92269.00
2018-10-18T09:17:11.775Z,92260.72
2018-10-18T09:19:43.631Z,92255.25
2018-10-18T09:22:14.985Z,92250.18
2018-10-18T09:24:46.399Z,92248.56
2018-10-18T09:27:18.549Z,92238.46
2018-10-18T09:30:02.000Z,92234.60
2018-10-18T09:32:33.480Z,92238.16
2018-10-18T09:35:05.159Z,92231.97
2018-10-18T09:37:36.185Z,92226.72
2018-10-18T09:40:08.794Z,92225.05
2018-10-18T09:42:39.959Z,92214.00
2018-10-18T09:45:12.372Z,92215.09
2018-10-18T09:47:43.265Z,92208.48
2018-10-18T09:50:14.750Z,92209.12
2018-10-18T09:52:45.635Z,92199.80
2018-10-18T09:55:19.565Z,92202.05
2018-10-18T09:57:50.861Z,92195.59
2018-10-18T10:00:38.879Z,92193.83
2018-10-18T10:03:14.929Z,92186.61
2018-10-18T10:05:48.696Z,92179.41
2018-10-18T10:08:22.862Z,92182.07
2018-10-18T10:10:57.536Z,92177.36
2018-10-18T10:13:28.680Z,92174.44
2018-10-18T10:16:00.327Z,92173.31
2018-10-18T10:18:31.225Z,92174.58
2018-10-18T10:21:02.164Z,92166.77
2018-10-18T10:23:33.070Z,92167.94
2018-10-18T10:26:04.348Z,92160.44
2018-10-18T10:28:35.219Z,92162.81
2018-10-18T10:31:07.130Z,92154.36
2018-10-18T10:33:38.585Z,92155.95
2018-10-18T10:36:09.603Z,92149.80
2018-10-18T10:38:40.574Z,92140.70
2018-10-18T10:41:18.274Z,92134.70
2018-10-18T10:43:49.363Z,92126.78
2018-10-18T10:46:20.376Z,92128.48
2018-10-18T10:48:51.580Z,92122.64
2018-10-18T10:51:22.643Z,92121.31
2018-10-18T10:53:56.477Z,92124.19
2018-10-18T10:56:27.987Z,92119.69
2018-10-18T10:59:00.255Z,92116.77
2018-10-18T11:01:31.674Z,92112.66
2018-10-18T11:04:03.347Z,92111.81
2018-10-18T11:06:36.260Z,92102.56
2018-10-18T11:09:10.834Z,92099.19
2018-10-18T11:11:43.180Z,92100.64
2018-10-18T11:14:14.184Z,92099.34
2018-10-18T11:16:45.728Z,92092.31
2018-10-18T11:19:16.602Z,92088.23
2018-10-18T11:21:47.581Z,92088.29
2018-10-18T11:24:18.754Z,92090.98
2018-10-18T11:26:49.840Z,92085.54
2018-10-18T11:29:20.868Z,92078.00
2018-10-18T11:31:52.146Z,92080.13
2018-10-18T11:34:23.977Z,92074.25
2018-10-18T11:36:55.351Z,92075.73
2018-10-18T11:39:26.246Z,92073.44
2018-10-18T11:41:57.195Z,92067.04
2018-10-18T11:44:33.173Z,92072.34
2018-10-18T11:47:04.116Z,92073.67
2018-10-18T11:49:35.009Z,92070.69
2018-10-18T11:52:17.545Z,92068.66
2018-10-18T11:54:48.471Z,92064.14
2018-10-18T11:57:19.455Z,92064.34
2018-10-18T11:59:50.333Z,92061.40
2018-10-18T12:02:21.289Z,92058.17
2018-10-18T12:04:52.787Z,92058.17
2018-10-18T12:07:23.792Z,92049.66
2018-10-18T12:09:55.679Z,92052.98
2018-10-18T12:12:27.719Z,92052.44
2018-10-18T12:14:58.854Z,92043.59
2018-10-18T12:17:30.753Z,92053.43
2018-10-18T12:20:01.688Z,92050.61
2018-10-18T12:22:32.961Z,92051.14
2018-10-18T12:25:03.868Z,92047.89
2018-10-18T12:27:35.347Z,92045.87
2018-10-18T12:30:07.803Z,92048.16
2018-10-18T12:32:41.458Z,92045.50
2018-10-18T12:35:15.694Z,92043.86
2018-10-18T12:37:48.339Z,92044.47
2018-10-18T12:40:22.990Z,92042.14
2018-10-18T12:42:54.208Z,92041.30
2018-10-18T12:45:25.102Z,92042.34
2018-10-18T12:47:56.073Z,92044.17
2018-10-18T12:50:26.956Z,92040.42
2018-10-18T12:52:57.989Z,92041.92
2018-10-18T12:55:28.876Z,92040.67
2018-10-18T12:57:59.865Z,92044.89
2018-10-18T13:00:30.767Z,92051.93
2018-10-18T13:03:01.691Z,92047.02
2018-10-18T13:05:32.625Z,92046.33
2018-10-18T13:09:28.239Z,92048.70
2018-10-18T13:11:59.494Z,92051.74
2018-10-18T13:14:31.167Z,92050.72
2018-10-18T13:17:02.053Z,92051.11
2018-10-18T13:19:33.011Z,92053.41
2018-10-18T13:22:03.925Z,92052.52
2018-10-18T13:24:34.873Z,92060.63
2018-10-18T13:27:05.933Z,92058.71
2018-10-18T13:29:36.948Z,92053.97
2018-10-18T13:32:07.936Z,92057.11
2018-10-18T13:34:40.036Z,92056.83
2018-10-18T13:37:10.933Z,92059.24
2018-10-18T13:39:41.898Z,92062.15
2018-10-18T13:42:12.929Z,92064.22
2018-10-18T13:44:43.992Z,92063.49
2018-10-18T13:47:14.879Z,92062.83
2018-10-18T13:49:45.807Z,92065.63
2018-10-18T13:52:16.703Z,92064.89
2018-10-18T13:54:47.905Z,92060.34
2018-10-18T13:57:19.094Z,92065.70
2018-10-18T14:00:00.956Z,92064.69
2018-10-18T14:02:32.068Z,92067.00
2018-10-18T14:05:03.051Z,92062.44
2018-10-18T14:07:34.137Z,92061.63
2018-10-18T14:10:05.195Z,92063.88
2018-10-18T14:12:36.113Z,92061.22
2018-10-18T14:15:07.780Z,92064.09
2018-10-18T14:17:39.164Z,92061.02
2018-10-18T14:20:10.605Z,92060.84
2018-10-18T14:22:41.954Z,92055.72
2018-10-18T14:25:12.924Z,92060.89
2018-10-18T14:27:43.855Z,92058.61
2018-10-18T14:30:14.956Z,92056.33
2018-10-18T14:32:46.000Z,92058.57
2018-10-18T14:35:17.463Z,92058.87
2018-10-18T14:37:48.402Z,92062.42
2018-10-18T14:40:19.332Z,92063.70
2018-10-18T14:42:50.221Z,92064.43
2018-10-18T14:45:21.327Z,92063.55
2018-10-18T14:47:52.296Z,92062.43
2018-10-18T14:50:23.556Z,92057.67
2018-10-18T14:52:54.573Z,92062.59
2018-10-18T14:55:25.812Z,92063.10
2018-10-18T14:57:57.098Z,92067.54
2018-10-18T15:00:28.112Z,92068.13
2018-10-18T15:02:59.310Z,92064.52
2018-10-18T15:05:30.258Z,92061.07
2018-10-18T15:08:01.216Z,92062.71
2018-10-18T15:10:32.329Z,92065.09
2018-10-18T15:13:03.229Z,92066.58
2018-10-18T15:15:34.230Z,92066.79
2018-10-18T15:18:05.288Z,92061.91
2018-10-18T15:20:38.842Z,92066.47
2018-10-18T15:23:09.814Z,92067.04
2018-10-18T15:25:41.231Z,92066.40
2018-10-18T15:28:12.180Z,92062.06
2018-10-18T15:30:43.193Z,92066.94
2018-10-18T15:33:14.158Z,92072.44
2018-10-18T15:35:45.369Z,92074.19
2018-10-18T15:38:16.483Z,92074.06
2018-10-18T15:40:47.837Z,92081.11
2018-10-18T15:43:18.726Z,92088.05
2018-10-18T15:45:49.783Z,92095.76
2018-10-18T15:48:20.672Z,92090.60
2018-10-18T15:50:51.636Z,92098.81
2018-10-18T15:53:22.535Z,92093.81
2018-10-18T15:55:53.583Z,92096.19
2018-10-18T15:58:24.464Z,92100.30
2018-10-18T16:00:55.469Z,92108.89
2018-10-18T16:03:26.370Z,92107.70
2018-10-18T16:05:57.978Z,92114.05
2018-10-18T16:08:28.882Z,92111.94
2018-10-18T16:10:59.901Z,92114.28
2018-10-18T16:13:31.157Z,92115.80
2018-10-18T16:16:02.210Z,92115.64
2018-10-18T16:18:35.909Z,92117.27
2018-10-18T16:21:06.989Z,92120.52
2018-10-18T16:23:38.112Z,92120.73
2018-10-18T16:26:09.226Z,92119.76
2018-10-18T16:28:40.218Z,92122.47
2018-10-18T16:31:11.269Z,92118.86
2018-10-18T16:33:42.228Z,92126.34
2018-10-18T16:36:13.412Z,92123.03
2018-10-18T16:38:44.386Z,92129.00
2018-10-18T16:41:15.547Z,92126.86
2018-10-18T16:43:46.462Z,92132.02
2018-10-18T16:46:17.559Z,92135.33
2018-10-18T16:48:48.835Z,92131.91
2018-10-18T16:51:19.806Z,92136.34
2018-10-18T16:53:50.858Z,92137.90
2018-10-18T16:56:22.580Z,92140.50
2018-10-18T16:58:53.697Z,92143.50
2018-10-18T17:01:25.170Z,92144.57
2018-10-18T17:03:56.072Z,92151.86
2018-10-18T17:06:27.102Z,92148.70
2018-10-18T17:08:58.260Z,92155.85
2018-10-18T17:11:29.411Z,92158.93
2018-10-18T17:14:00.515Z,92160.11
2018-10-18T17:16:31.784Z,92162.89
2018-10-18T17:19:02.660Z,92168.28
2018-10-18T17:21:34.596Z,92173.11
2018-10-18T17:24:05.623Z,92172.20
2018-10-18T17:26:36.967Z,92178.77
2018-10-18T17:29:08.284Z,92179.89
2018-10-18T17:31:39.355Z,92194.52
2018-10-18T17:34:10.341Z,92189.94
2018-10-18T17:36:41.430Z,92197.12
2018-10-18T17:39:12.515Z,92199.26
2018-10-18T17:41:43.461Z,92205.41
2018-10-18T17:44:14.504Z,92201.58
2018-10-18T17:46:45.691Z,92206.23
2018-10-18T17:49:16.595Z,92212.71
2018-10-18T17:51:47.545Z,92212.78
2018-10-18T17:55:21.137Z,92206.65
2018-10-18T17:57:52.279Z,92214.30
2018-10-18T18:00:26.276Z,92221.88
2018-10-18T18:02:57.315Z,92220.58
2018-10-18T18:05:28.255Z,92221.11
2018-10-18T18:07:59.331Z,92229.27
2018-10-18T18:10:30.620Z,92227.51
2018-10-18T18:13:01.894Z,92233.15
2018-10-18T18:15:33.222Z,92232.79
2018-10-18T18:18:04.615Z,92229.78
2018-10-18T18:20:35.977Z,92240.09
2018-10-18T18:23:07.660Z,92229.20
2018-10-18T18:25:47.931Z,92236.05
2018-10-18T18:28:24.433Z,92237.67
2018-10-18T18:30:56.922Z,92237.48
2018-10-18T18:33:29.582Z,92240.84
2018-10-18T18:36:01.444Z,92237.44
2018-10-18T18:38:38.604Z,92242.45
2018-10-18T18:41:10.280Z,92240.65
2018-10-18T18:43:44.709Z,92243.87
2018-10-18T18:46:21.991Z,92252.05
2018-10-18T18:48:56.426Z,92256.68
2018-10-18T18:51:27.948Z,92262.45
2018-10-18T18:53:59.445Z,92262.86
2018-10-18T18:56:30.606Z,92264.08
2018-10-18T18:59:01.829Z,92266.64
2018-10-18T19:01:32.685Z,92270.89
2018-10-18T19:04:03.645Z,92277.58
2018-10-18T19:06:34.570Z,92276.70
2018-10-18T19:09:09.706Z,92280.55
2018-10-18T19:11:41.513Z,92281.42
2018-10-18T19:14:12.436Z,92280.87
2018-10-18T19:17:06.052Z,92283.00
2018-10-18T19:19:38.951Z,92278.17
2018-10-18T19:22:09.918Z,92286.70
2018-10-18T19:24:41.805Z,92289.41
2018-10-18T19:27:13.784Z,92293.80
2018-10-18T19:29:44.735Z,92294.39
2018-10-18T19:32:17.637Z,92295.64
2018-10-18T19:34:48.816Z,92298.73
2018-10-18T19:37:20.016Z,92296.95
2018-10-18T19:40:00.911Z,92294.13
2018-10-18T19:42:32.808Z,92299.48
2018-10-18T19:45:09.784Z,92301.14
2018-10-18T19:47:41.060Z,92299.38
2018-10-18T19:50:12.021Z,92302.34
2018-10-18T19:52:43.242Z,92304.20
2018-10-18T19:55:14.311Z,92301.61
2018-10-18T19:57:45.232Z,92304.77
2018-10-18T20:00:21.536Z,92303.27
2018-10-18T20:02:57.600Z,92300.08
2018-10-18T20:05:33.576Z,92299.94
2018-10-18T20:08:09.606Z,92304.25
2018-10-18T20:10:45.598Z,92299.77
2018-10-18T20:13:21.363Z,92306.11
2018-10-18T20:15:57.102Z,92304.34
2018-10-18T20:18:33.014Z,92310.98
2018-10-18T20:21:09.521Z,92309.23
2018-10-18T20:23:45.472Z,92309.70
2018-10-18T20:26:21.622Z,92309.31
2018-10-18T20:28:57.336Z,92307.62
2018-10-18T20:31:33.429Z,92305.22
2018-10-18T20:35:33.328Z,92304.18
2018-10-18T20:38:11.882Z,92304.17
2018-10-18T20:40:47.725Z,92303.42
2018-10-18T20:43:23.686Z,92308.00
2018-10-18T20:46:00.547Z,92301.02
2018-10-18T20:48:36.767Z,92299.65
2018-10-18T20:51:12.758Z,92299.16
2018-10-18T20:53:48.830Z,92301.30
2018-10-18T20:56:24.718Z,92305.56
2018-10-18T20:59:00.526Z,92301.48
2018-10-18T21:01:36.302Z,92302.31
2018-10-18T21:04:12.313Z,92300.52
2018-10-18T21:06:48.235Z,92302.89
2018-10-18T21:09:24.128Z,92314.14
2018-10-18T21:12:00.044Z,92311.37
2018-10-18T21:14:36.191Z,92309.48
2018-10-18T21:17:12.193Z,92309.08
2018-10-18T21:19:48.353Z,92306.94
2018-10-18T21:22:24.359Z,92306.47
2018-10-18T21:25:00.257Z,92308.47
2018-10-18T21:27:36.131Z,92306.94
2018-10-18T21:30:12.320Z,92298.97
2018-10-18T21:32:48.494Z,92295.92
2018-10-18T21:35:24.498Z,92301.80
2018-10-18T21:38:00.642Z,92300.12
2018-10-18T21:40:36.467Z,92308.88
2018-10-18T21:43:12.286Z,92309.87
2018-10-18T21:45:48.292Z,92316.16
2018-10-18T21:48:24.289Z,92315.41
2018-10-18T21:51:00.192Z,92313.72
2018-10-18T21:53:36.271Z,92313.81
2018-10-18T21:56:12.235Z,92312.32
2018-10-18T21:58:48.088Z,92310.98
2018-10-18T22:01:24.109Z,92311.59
2018-10-18T22:04:00.000Z,92309.22
2018-10-18T22:06:36.240Z,92308.55
2018-10-18T22:09:12.091Z,92303.60
2018-10-18T22:11:48.107Z,92301.84
2018-10-18T22:14:23.984Z,92300.70
2018-10-18T22:17:00.395Z,92304.59
2018-10-18T22:19:36.178Z,92310.77
2018-10-18T22:22:12.069Z,92307.92
2018-10-18T22:24:47.980Z,92316.20
2018-10-18T22:27:23.950Z,92316.06
2018-10-18T22:29:59.761Z,92319.26
2018-10-18T22:32:35.630Z,92320.31
2018-10-18T22:35:11.754Z,92318.55
2018-10-18T22:37:47.807Z,92322.16
2018-10-18T22:40:23.705Z,92328.61
2018-10-18T22:42:59.929Z,92331.19
2018-10-18T22:45:35.796Z,92331.57
2018-10-18T22:48:11.656Z,92328.16
2018-10-18T22:50:47.388Z,92326.48
2018-10-18T22:53:23.220Z,92326.48
2018-10-18T22:55:58.968Z,92329.77
2018-10-18T22:58:34.885Z,92327.45
2018-10-18T23:01:10.654Z,92328.62
2018-10-18T23:03:46.554Z,92329.95
2018-10-18T23:06:22.424Z,92331.14
2018-10-18T23:08:58.345Z,92333.28
2018-10-18T23:11:34.157Z,92341.06
2018-10-18T23:14:10.820Z,92337.64
2018-10-18T23:16:46.662Z,92338.16
2018-10-18T23:19:22.608Z,92337.16
2018-10-18T23:21:58.400Z,92337.73
2018-10-18T23:24:35.549Z,92340.45
2018-10-18T23:27:10.649Z,92341.19
2018-10-18T23:29:46.662Z,92342.10
2018-10-18T23:32:22.469Z,92339.42
2018-10-18T23:34:58.371Z,92344.33
2018-10-18T23:37:34.347Z,92343.78
2018-10-18T23:40:10.238Z,92338.97
2018-10-18T23:42:45.949Z,92339.89
2018-10-18T23:45:22.804Z,92334.62
2018-10-18T23:47:58.639Z,92334.26
2018-10-18T23:50:34.481Z,92334.37
2018-10-18T23:53:10.402Z,92334.25
2018-10-18T23:55:46.505Z,92330.67
2018-10-18T23:58:22.343Z,92329.04
